sensor_id;sensor_type;location;lat;lon;timestamp;P1;durP1;ratioP1;P2;durP2;ratioP2
21927;SDS011;11128;51.096;17.190;2022-07-22T00:01:12;6.80;;;4.93;;
21927;SDS011;11128;51.096;17.190;2022-07-22T00:06:14;6.85;;;5.00;;
21927;SDS011;11128;51.096;17.190;2022-07-22T00:11:15;6.47;;;4.75;;
21927;SDS011;11128;51.096;17.190;2022-07-22T00:16:17;8.52;;;5.28;;
21927;SDS011;11128;51.096;17.190;2022-07-22T00:21:19;6.05;;;5.30;;
21927;SDS011;11128;51.096;17.190;2022-07-22T00:26:21;6.35;;;5.03;;
21927;SDS011;11128;51.096;17.190;2022-07-22T00:31:23;6.60;;;5.43;;
21927;SDS011;11128;51.096;17.190;2022-07-22T00:36:24;7.53;;;5.97;;
21927;SDS011;11128;51.096;17.190;2022-07-22T00:41:27;8.13;;;5.80;;
21927;SDS011;11128;51.096;17.190;2022-07-22T00:46:29;7.80;;;5.35;;
21927;SDS011;11128;51.096;17.190;2022-07-22T00:51:31;7.53;;;5.47;;
21927;SDS011;11128;51.096;17.190;2022-07-22T00:56:33;8.80;;;5.60;;
21927;SDS011;11128;51.096;17.190;2022-07-22T01:01:36;6.25;;;5.55;;
21927;SDS011;11128;51.096;17.190;2022-07-22T01:06:39;8.50;;;5.43;;
21927;SDS011;11128;51.096;17.190;2022-07-22T01:11:45;8.05;;;5.53;;
21927;SDS011;11128;51.096;17.190;2022-07-22T01:16:47;7.93;;;5.57;;
21927;SDS011;11128;51.096;17.190;2022-07-22T01:21:48;7.32;;;5.95;;
21927;SDS011;11128;51.096;17.190;2022-07-22T01:26:50;8.02;;;6.05;;
21927;SDS011;11128;51.096;17.190;2022-07-22T01:31:51;10.10;;;6.53;;
21927;SDS011;11128;51.096;17.190;2022-07-22T01:36:53;7.22;;;5.90;;
21927;SDS011;11128;51.096;17.190;2022-07-22T01:41:54;10.25;;;6.25;;
21927;SDS011;11128;51.096;17.190;2022-07-22T01:46:56;8.80;;;6.13;;
21927;SDS011;11128;51.096;17.190;2022-07-22T01:52:00;7.60;;;5.78;;
21927;SDS011;11128;51.096;17.190;2022-07-22T01:57:03;12.10;;;5.70;;
21927;SDS011;11128;51.096;17.190;2022-07-22T02:02:04;8.27;;;6.10;;
21927;SDS011;11128;51.096;17.190;2022-07-22T02:07:06;7.00;;;5.68;;
21927;SDS011;11128;51.096;17.190;2022-07-22T02:12:07;7.88;;;5.68;;
21927;SDS011;11128;51.096;17.190;2022-07-22T02:17:09;8.10;;;5.90;;
21927;SDS011;11128;51.096;17.190;2022-07-22T02:22:11;9.57;;;5.78;;
21927;SDS011;11128;51.096;17.190;2022-07-22T02:27:15;8.63;;;5.93;;
21927;SDS011;11128;51.096;17.190;2022-07-22T02:32:16;7.57;;;6.22;;
21927;SDS011;11128;51.096;17.190;2022-07-22T02:37:18;9.32;;;6.50;;
21927;SDS011;11128;51.096;17.190;2022-07-22T02:42:19;8.88;;;6.07;;
21927;SDS011;11128;51.096;17.190;2022-07-22T02:47:21;11.35;;;5.85;;
21927;SDS011;11128;51.096;17.190;2022-07-22T02:52:23;8.65;;;6.55;;
21927;SDS011;11128;51.096;17.190;2022-07-22T02:57:24;9.95;;;6.93;;
21927;SDS011;11128;51.096;17.190;2022-07-22T03:02:25;11.90;;;7.75;;
21927;SDS011;11128;51.096;17.190;2022-07-22T03:07:27;10.40;;;7.95;;
21927;SDS011;11128;51.096;17.190;2022-07-22T03:12:28;10.60;;;6.45;;
21927;SDS011;11128;51.096;17.190;2022-07-22T03:17:32;10.30;;;7.00;;
21927;SDS011;11128;51.096;17.190;2022-07-22T03:22:35;15.55;;;7.45;;
21927;SDS011;11128;51.096;17.190;2022-07-22T03:27:37;13.15;;;7.15;;
21927;SDS011;11128;51.096;17.190;2022-07-22T03:32:38;9.57;;;7.38;;
21927;SDS011;11128;51.096;17.190;2022-07-22T03:37:46;14.65;;;8.30;;
21927;SDS011;11128;51.096;17.190;2022-07-22T03:42:47;13.30;;;7.55;;
21927;SDS011;11128;51.096;17.190;2022-07-22T03:47:49;11.65;;;7.57;;
21927;SDS011;11128;51.096;17.190;2022-07-22T03:52:50;13.20;;;7.72;;
21927;SDS011;11128;51.096;17.190;2022-07-22T03:57:52;12.07;;;8.13;;
21927;SDS011;11128;51.096;17.190;2022-07-22T04:02:53;14.57;;;8.45;;
21927;SDS011;11128;51.096;17.190;2022-07-22T04:07:55;16.83;;;8.95;;
21927;SDS011;11128;51.096;17.190;2022-07-22T04:12:56;12.35;;;9.02;;
21927;SDS011;11128;51.096;17.190;2022-07-22T04:17:58;15.52;;;9.27;;
21927;SDS011;11128;51.096;17.190;2022-07-22T04:23:00;13.40;;;9.20;;
21927;SDS011;11128;51.096;17.190;2022-07-22T04:28:01;11.75;;;9.15;;
21927;SDS011;11128;51.096;17.190;2022-07-22T04:33:03;11.93;;;8.77;;
21927;SDS011;11128;51.096;17.190;2022-07-22T04:38:05;12.07;;;8.52;;
21927;SDS011;11128;51.096;17.190;2022-07-22T04:43:07;12.02;;;8.70;;
21927;SDS011;11128;51.096;17.190;2022-07-22T04:48:08;10.75;;;8.90;;
21927;SDS011;11128;51.096;17.190;2022-07-22T04:53:10;14.35;;;9.60;;
21927;SDS011;11128;51.096;17.190;2022-07-22T04:58:12;13.48;;;9.00;;
21927;SDS011;11128;51.096;17.190;2022-07-22T05:03:13;12.85;;;9.57;;
21927;SDS011;11128;51.096;17.190;2022-07-22T05:08:15;19.10;;;10.23;;
21927;SDS011;11128;51.096;17.190;2022-07-22T05:13:17;15.23;;;10.40;;
21927;SDS011;11128;51.096;17.190;2022-07-22T05:18:19;13.98;;;9.70;;
21927;SDS011;11128;51.096;17.190;2022-07-22T05:23:20;13.98;;;9.95;;
21927;SDS011;11128;51.096;17.190;2022-07-22T05:28:23;14.63;;;10.13;;
21927;SDS011;11128;51.096;17.190;2022-07-22T05:33:25;14.35;;;9.55;;
21927;SDS011;11128;51.096;17.190;2022-07-22T05:38:26;14.80;;;10.23;;
21927;SDS011;11128;51.096;17.190;2022-07-22T05:43:28;15.55;;;9.32;;
21927;SDS011;11128;51.096;17.190;2022-07-22T05:48:30;12.43;;;9.75;;
21927;SDS011;11128;51.096;17.190;2022-07-22T05:53:32;13.95;;;9.52;;
21927;SDS011;11128;51.096;17.190;2022-07-22T05:58:33;10.45;;;8.38;;
21927;SDS011;11128;51.096;17.190;2022-07-22T06:03:35;12.45;;;8.30;;
21927;SDS011;11128;51.096;17.190;2022-07-22T06:08:37;11.95;;;8.00;;
21927;SDS011;11128;51.096;17.190;2022-07-22T06:13:38;11.73;;;8.20;;
21927;SDS011;11128;51.096;17.190;2022-07-22T06:18:40;11.85;;;8.48;;
21927;SDS011;11128;51.096;17.190;2022-07-22T06:23:41;12.73;;;9.23;;
21927;SDS011;11128;51.096;17.190;2022-07-22T06:28:43;12.63;;;9.48;;
21927;SDS011;11128;51.096;17.190;2022-07-22T06:33:45;13.38;;;8.77;;
21927;SDS011;11128;51.096;17.190;2022-07-22T06:38:47;17.08;;;9.20;;
21927;SDS011;11128;51.096;17.190;2022-07-22T06:43:48;11.48;;;8.82;;
21927;SDS011;11128;51.096;17.190;2022-07-22T06:48:50;15.77;;;9.38;;
21927;SDS011;11128;51.096;17.190;2022-07-22T06:53:52;12.32;;;8.82;;
21927;SDS011;11128;51.096;17.190;2022-07-22T06:58:53;13.13;;;9.43;;
21927;SDS011;11128;51.096;17.190;2022-07-22T07:03:55;13.95;;;9.48;;
21927;SDS011;11128;51.096;17.190;2022-07-22T07:08:57;13.02;;;9.50;;
21927;SDS011;11128;51.096;17.190;2022-07-22T07:13:59;10.77;;;8.32;;
21927;SDS011;11128;51.096;17.190;2022-07-22T07:19:01;13.48;;;8.60;;
21927;SDS011;11128;51.096;17.190;2022-07-22T07:24:02;13.20;;;8.55;;
21927;SDS011;11128;51.096;17.190;2022-07-22T07:29:04;14.15;;;8.90;;
21927;SDS011;11128;51.096;17.190;2022-07-22T07:34:06;11.82;;;8.90;;
21927;SDS011;11128;51.096;17.190;2022-07-22T07:39:10;11.27;;;8.68;;
21927;SDS011;11128;51.096;17.190;2022-07-22T07:44:17;13.65;;;8.57;;
21927;SDS011;11128;51.096;17.190;2022-07-22T07:49:19;9.73;;;8.18;;
21927;SDS011;11128;51.096;17.190;2022-07-22T07:54:20;13.40;;;8.27;;
21927;SDS011;11128;51.096;17.190;2022-07-22T07:59:22;11.88;;;9.13;;
21927;SDS011;11128;51.096;17.190;2022-07-22T08:04:25;11.95;;;8.70;;
21927;SDS011;11128;51.096;17.190;2022-07-22T08:09:27;11.65;;;9.30;;
21927;SDS011;11128;51.096;17.190;2022-07-22T08:14:28;13.02;;;8.40;;
21927;SDS011;11128;51.096;17.190;2022-07-22T08:19:30;13.00;;;9.25;;
21927;SDS011;11128;51.096;17.190;2022-07-22T08:24:34;11.77;;;9.50;;
21927;SDS011;11128;51.096;17.190;2022-07-22T08:29:35;11.05;;;8.57;;
21927;SDS011;11128;51.096;17.190;2022-07-22T08:34:38;12.13;;;9.38;;
21927;SDS011;11128;51.096;17.190;2022-07-22T08:39:40;13.48;;;9.35;;
21927;SDS011;11128;51.096;17.190;2022-07-22T08:44:43;14.77;;;9.98;;
21927;SDS011;11128;51.096;17.190;2022-07-22T08:49:45;12.73;;;9.68;;
21927;SDS011;11128;51.096;17.190;2022-07-22T08:54:46;12.13;;;9.70;;
21927;SDS011;11128;51.096;17.190;2022-07-22T08:59:51;10.63;;;9.27;;
21927;SDS011;11128;51.096;17.190;2022-07-22T09:05:01;13.50;;;9.63;;
21927;SDS011;11128;51.096;17.190;2022-07-22T09:10:14;13.60;;;8.93;;
21927;SDS011;11128;51.096;17.190;2022-07-22T09:15:24;10.35;;;9.23;;
21927;SDS011;11128;51.096;17.190;2022-07-22T09:20:35;12.38;;;9.68;;
21927;SDS011;11128;51.096;17.190;2022-07-22T09:25:38;9.93;;;8.90;;
21927;SDS011;11128;51.096;17.190;2022-07-22T09:30:50;11.02;;;8.13;;
21927;SDS011;11128;51.096;17.190;2022-07-22T09:36:00;9.98;;;8.65;;
21927;SDS011;11128;51.096;17.190;2022-07-22T09:41:05;10.13;;;8.00;;
21927;SDS011;11128;51.096;17.190;2022-07-22T09:46:08;9.30;;;7.43;;
21927;SDS011;11128;51.096;17.190;2022-07-22T09:51:11;10.35;;;8.30;;
21927;SDS011;11128;51.096;17.190;2022-07-22T09:56:13;9.13;;;7.47;;
21927;SDS011;11128;51.096;17.190;2022-07-22T10:01:15;8.77;;;7.60;;
21927;SDS011;11128;51.096;17.190;2022-07-22T10:06:18;9.70;;;8.27;;
21927;SDS011;11128;51.096;17.190;2022-07-22T10:11:20;8.82;;;7.88;;
21927;SDS011;11128;51.096;17.190;2022-07-22T10:16:21;7.70;;;6.90;;
21927;SDS011;11128;51.096;17.190;2022-07-22T10:21:30;8.90;;;6.13;;
21927;SDS011;11128;51.096;17.190;2022-07-22T10:26:47;8.02;;;7.15;;
21927;SDS011;11128;51.096;17.190;2022-07-22T10:47:58;8.05;;;5.95;;
21927;SDS011;11128;51.096;17.190;2022-07-22T10:58:47;10.02;;;6.53;;
21927;SDS011;11128;51.096;17.190;2022-07-22T11:04:06;6.18;;;5.57;;
21927;SDS011;11128;51.096;17.190;2022-07-22T11:09:15;6.10;;;5.50;;
21927;SDS011;11128;51.096;17.190;2022-07-22T11:14:26;7.65;;;5.63;;
21927;SDS011;11128;51.096;17.190;2022-07-22T11:19:29;5.55;;;5.05;;
21927;SDS011;11128;51.096;17.190;2022-07-22T11:24:33;5.65;;;5.03;;
21927;SDS011;11128;51.096;17.190;2022-07-22T11:29:38;5.75;;;5.18;;
21927;SDS011;11128;51.096;17.190;2022-07-22T11:34:43;7.35;;;6.20;;
21927;SDS011;11128;51.096;17.190;2022-07-22T11:39:47;6.35;;;5.10;;
21927;SDS011;11128;51.096;17.190;2022-07-22T11:44:48;7.32;;;5.47;;
21927;SDS011;11128;51.096;17.190;2022-07-22T11:49:50;5.72;;;5.22;;
21927;SDS011;11128;51.096;17.190;2022-07-22T11:54:52;7.10;;;5.10;;
21927;SDS011;11128;51.096;17.190;2022-07-22T11:59:54;7.35;;;6.10;;
21927;SDS011;11128;51.096;17.190;2022-07-22T12:04:56;5.78;;;4.72;;
21927;SDS011;11128;51.096;17.190;2022-07-22T12:09:57;6.10;;;4.35;;
21927;SDS011;11128;51.096;17.190;2022-07-22T12:14:59;5.45;;;3.92;;
21927;SDS011;11128;51.096;17.190;2022-07-22T12:20:09;4.85;;;4.45;;
21927;SDS011;11128;51.096;17.190;2022-07-22T12:25:13;5.47;;;4.53;;
21927;SDS011;11128;51.096;17.190;2022-07-22T12:30:15;6.63;;;4.78;;
21927;SDS011;11128;51.096;17.190;2022-07-22T12:35:17;6.85;;;4.35;;
21927;SDS011;11128;51.096;17.190;2022-07-22T12:40:19;7.28;;;5.00;;
21927;SDS011;11128;51.096;17.190;2022-07-22T12:45:23;5.65;;;4.97;;
21927;SDS011;11128;51.096;17.190;2022-07-22T12:50:34;5.78;;;4.32;;
21927;SDS011;11128;51.096;17.190;2022-07-22T12:55:40;5.20;;;4.70;;
21927;SDS011;11128;51.096;17.190;2022-07-22T13:00:48;4.95;;;4.55;;
21927;SDS011;11128;51.096;17.190;2022-07-22T13:05:53;5.20;;;4.60;;
21927;SDS011;11128;51.096;17.190;2022-07-22T13:10:56;6.93;;;4.80;;
21927;SDS011;11128;51.096;17.190;2022-07-22T13:15:59;5.40;;;4.55;;
21927;SDS011;11128;51.096;17.190;2022-07-22T13:21:01;5.05;;;4.50;;
21927;SDS011;11128;51.096;17.190;2022-07-22T13:26:02;7.10;;;4.50;;
21927;SDS011;11128;51.096;17.190;2022-07-22T13:31:04;5.18;;;4.53;;
21927;SDS011;11128;51.096;17.190;2022-07-22T13:36:06;5.75;;;5.05;;
21927;SDS011;11128;51.096;17.190;2022-07-22T13:41:09;5.97;;;4.45;;
21927;SDS011;11128;51.096;17.190;2022-07-22T13:46:18;5.05;;;4.30;;
21927;SDS011;11128;51.096;17.190;2022-07-22T13:51:20;5.20;;;4.40;;
21927;SDS011;11128;51.096;17.190;2022-07-22T13:56:21;7.60;;;5.10;;
21927;SDS011;11128;51.096;17.190;2022-07-22T14:01:23;8.50;;;4.97;;
21927;SDS011;11128;51.096;17.190;2022-07-22T14:06:25;6.35;;;5.05;;
21927;SDS011;11128;51.096;17.190;2022-07-22T14:11:26;5.00;;;4.50;;
21927;SDS011;11128;51.096;17.190;2022-07-22T14:16:28;6.13;;;4.40;;
21927;SDS011;11128;51.096;17.190;2022-07-22T14:21:36;7.40;;;4.77;;
21927;SDS011;11128;51.096;17.190;2022-07-22T14:26:39;5.70;;;4.85;;
21927;SDS011;11128;51.096;17.190;2022-07-22T14:31:43;7.78;;;4.80;;
21927;SDS011;11128;51.096;17.190;2022-07-22T14:36:45;7.72;;;5.18;;
21927;SDS011;11128;51.096;17.190;2022-07-22T14:41:47;6.15;;;4.90;;
21927;SDS011;11128;51.096;17.190;2022-07-22T14:46:49;9.25;;;4.90;;
21927;SDS011;11128;51.096;17.190;2022-07-22T14:51:50;6.40;;;4.95;;
21927;SDS011;11128;51.096;17.190;2022-07-22T14:56:51;5.53;;;4.95;;
21927;SDS011;11128;51.096;17.190;2022-07-22T15:01:54;4.88;;;4.45;;
21927;SDS011;11128;51.096;17.190;2022-07-22T15:06:56;6.97;;;4.70;;
21927;SDS011;11128;51.096;17.190;2022-07-22T15:11:58;7.15;;;4.75;;
21927;SDS011;11128;51.096;17.190;2022-07-22T15:16:59;5.07;;;4.45;;
21927;SDS011;11128;51.096;17.190;2022-07-22T15:22:01;5.43;;;4.40;;
21927;SDS011;11128;51.096;17.190;2022-07-22T15:27:03;6.05;;;4.60;;
21927;SDS011;11128;51.096;17.190;2022-07-22T15:32:06;5.43;;;4.90;;
21927;SDS011;11128;51.096;17.190;2022-07-22T15:37:08;4.90;;;4.50;;
21927;SDS011;11128;51.096;17.190;2022-07-22T15:42:10;11.88;;;5.20;;
21927;SDS011;11128;51.096;17.190;2022-07-22T15:47:12;5.32;;;4.82;;
21927;SDS011;11128;51.096;17.190;2022-07-22T15:52:14;5.85;;;4.72;;
21927;SDS011;11128;51.096;17.190;2022-07-22T15:57:15;6.22;;;4.80;;
21927;SDS011;11128;51.096;17.190;2022-07-22T16:02:37;5.65;;;5.05;;
21927;SDS011;11128;51.096;17.190;2022-07-22T16:07:39;6.30;;;4.72;;
21927;SDS011;11128;51.096;17.190;2022-07-22T16:12:44;9.35;;;4.57;;
21927;SDS011;11128;51.096;17.190;2022-07-22T16:17:45;6.07;;;4.82;;
21927;SDS011;11128;51.096;17.190;2022-07-22T16:22:47;5.75;;;4.78;;
21927;SDS011;11128;51.096;17.190;2022-07-22T16:27:49;7.45;;;5.07;;
21927;SDS011;11128;51.096;17.190;2022-07-22T16:32:51;7.13;;;5.20;;
21927;SDS011;11128;51.096;17.190;2022-07-22T16:37:54;6.13;;;5.50;;
21927;SDS011;11128;51.096;17.190;2022-07-22T16:42:56;5.25;;;4.63;;
21927;SDS011;11128;51.096;17.190;2022-07-22T16:47:58;5.35;;;4.85;;
21927;SDS011;11128;51.096;17.190;2022-07-22T16:52:59;4.97;;;4.32;;
21927;SDS011;11128;51.096;17.190;2022-07-22T16:58:01;8.00;;;5.53;;
21927;SDS011;11128;51.096;17.190;2022-07-22T17:03:03;6.68;;;5.30;;
21927;SDS011;11128;51.096;17.190;2022-07-22T17:08:05;5.65;;;5.00;;
21927;SDS011;11128;51.096;17.190;2022-07-22T17:13:06;6.57;;;5.30;;
21927;SDS011;11128;51.096;17.190;2022-07-22T17:18:08;7.22;;;5.07;;
21927;SDS011;11128;51.096;17.190;2022-07-22T17:23:10;8.15;;;5.47;;
21927;SDS011;11128;51.096;17.190;2022-07-22T17:28:12;9.50;;;5.68;;
21927;SDS011;11128;51.096;17.190;2022-07-22T17:33:13;10.52;;;5.47;;
21927;SDS011;11128;51.096;17.190;2022-07-22T17:38:15;6.80;;;5.72;;
21927;SDS011;11128;51.096;17.190;2022-07-22T17:43:17;6.00;;;5.10;;
21927;SDS011;11128;51.096;17.190;2022-07-22T17:48:19;9.13;;;5.88;;
21927;SDS011;11128;51.096;17.190;2022-07-22T17:53:20;5.95;;;5.18;;
21927;SDS011;11128;51.096;17.190;2022-07-22T17:58:23;9.63;;;6.40;;
21927;SDS011;11128;51.096;17.190;2022-07-22T18:03:24;12.45;;;7.13;;
21927;SDS011;11128;51.096;17.190;2022-07-22T18:08:26;11.30;;;7.30;;
21927;SDS011;11128;51.096;17.190;2022-07-22T18:13:28;12.60;;;7.53;;
21927;SDS011;11128;51.096;17.190;2022-07-22T18:18:30;19.45;;;9.35;;
21927;SDS011;11128;51.096;17.190;2022-07-22T18:23:33;13.60;;;7.20;;
21927;SDS011;11128;51.096;17.190;2022-07-22T18:28:35;8.10;;;6.15;;
21927;SDS011;11128;51.096;17.190;2022-07-22T18:33:38;46.70;;;14.85;;
21927;SDS011;11128;51.096;17.190;2022-07-22T18:38:39;50.42;;;15.05;;
21927;SDS011;11128;51.096;17.190;2022-07-22T18:43:41;45.72;;;13.50;;
21927;SDS011;11128;51.096;17.190;2022-07-22T18:48:43;24.85;;;8.68;;
21927;SDS011;11128;51.096;17.190;2022-07-22T18:53:44;10.57;;;6.30;;
21927;SDS011;11128;51.096;17.190;2022-07-22T18:58:46;11.82;;;6.32;;
21927;SDS011;11128;51.096;17.190;2022-07-22T19:03:48;13.95;;;6.35;;
21927;SDS011;11128;51.096;17.190;2022-07-22T19:08:50;6.65;;;5.45;;
21927;SDS011;11128;51.096;17.190;2022-07-22T19:13:53;7.40;;;6.28;;
21927;SDS011;11128;51.096;17.190;2022-07-22T19:18:55;7.55;;;6.60;;
21927;SDS011;11128;51.096;17.190;2022-07-22T19:23:57;8.85;;;6.40;;
21927;SDS011;11128;51.096;17.190;2022-07-22T19:29:00;8.32;;;6.30;;
21927;SDS011;11128;51.096;17.190;2022-07-22T19:34:02;10.50;;;6.78;;
21927;SDS011;11128;51.096;17.190;2022-07-22T19:39:04;9.43;;;6.40;;
21927;SDS011;11128;51.096;17.190;2022-07-22T19:44:06;9.63;;;6.65;;
21927;SDS011;11128;51.096;17.190;2022-07-22T19:49:08;10.18;;;6.80;;
21927;SDS011;11128;51.096;17.190;2022-07-22T19:54:10;9.55;;;6.55;;
21927;SDS011;11128;51.096;17.190;2022-07-22T19:59:12;10.00;;;6.60;;
21927;SDS011;11128;51.096;17.190;2022-07-22T20:04:14;9.45;;;7.15;;
21927;SDS011;11128;51.096;17.190;2022-07-22T20:09:16;11.07;;;7.45;;
21927;SDS011;11128;51.096;17.190;2022-07-22T20:14:18;11.38;;;7.82;;
21927;SDS011;11128;51.096;17.190;2022-07-22T20:19:20;13.48;;;7.88;;
21927;SDS011;11128;51.096;17.190;2022-07-22T20:24:22;16.02;;;7.78;;
21927;SDS011;11128;51.096;17.190;2022-07-22T20:29:24;15.68;;;7.18;;
21927;SDS011;11128;51.096;17.190;2022-07-22T20:34:26;20.45;;;8.50;;
21927;SDS011;11128;51.096;17.190;2022-07-22T20:39:27;14.48;;;8.95;;
21927;SDS011;11128;51.096;17.190;2022-07-22T20:44:29;18.83;;;8.70;;
21927;SDS011;11128;51.096;17.190;2022-07-22T20:49:32;16.20;;;8.75;;
21927;SDS011;11128;51.096;17.190;2022-07-22T20:54:34;19.65;;;8.90;;
21927;SDS011;11128;51.096;17.190;2022-07-22T20:59:37;19.50;;;8.57;;
21927;SDS011;11128;51.096;17.190;2022-07-22T21:04:38;14.00;;;9.00;;
21927;SDS011;11128;51.096;17.190;2022-07-22T21:09:40;19.27;;;8.77;;
21927;SDS011;11128;51.096;17.190;2022-07-22T21:14:41;17.98;;;8.32;;
21927;SDS011;11128;51.096;17.190;2022-07-22T21:19:43;15.27;;;9.75;;
21927;SDS011;11128;51.096;17.190;2022-07-22T21:24:46;18.17;;;9.00;;
21927;SDS011;11128;51.096;17.190;2022-07-22T21:29:48;18.95;;;9.15;;
21927;SDS011;11128;51.096;17.190;2022-07-22T21:34:50;13.57;;;9.25;;
21927;SDS011;11128;51.096;17.190;2022-07-22T21:39:51;13.38;;;8.35;;
21927;SDS011;11128;51.096;17.190;2022-07-22T21:44:53;14.30;;;8.95;;
21927;SDS011;11128;51.096;17.190;2022-07-22T21:49:54;13.20;;;8.70;;
21927;SDS011;11128;51.096;17.190;2022-07-22T21:54:57;12.23;;;9.13;;
21927;SDS011;11128;51.096;17.190;2022-07-22T21:59:59;10.45;;;8.90;;
21927;SDS011;11128;51.096;17.190;2022-07-22T22:05:01;13.20;;;9.20;;
21927;SDS011;11128;51.096;17.190;2022-07-22T22:10:03;13.73;;;9.68;;
21927;SDS011;11128;51.096;17.190;2022-07-22T22:15:05;14.10;;;9.65;;
21927;SDS011;11128;51.096;17.190;2022-07-22T22:20:09;14.27;;;9.98;;
21927;SDS011;11128;51.096;17.190;2022-07-22T22:25:11;15.98;;;9.40;;
21927;SDS011;11128;51.096;17.190;2022-07-22T22:30:13;13.32;;;9.27;;
21927;SDS011;11128;51.096;17.190;2022-07-22T22:35:16;12.85;;;9.30;;
21927;SDS011;11128;51.096;17.190;2022-07-22T22:40:17;12.50;;;9.65;;
21927;SDS011;11128;51.096;17.190;2022-07-22T22:45:19;13.20;;;9.82;;
21927;SDS011;11128;51.096;17.190;2022-07-22T22:50:21;11.93;;;8.95;;
21927;SDS011;11128;51.096;17.190;2022-07-22T22:55:24;13.80;;;9.30;;
21927;SDS011;11128;51.096;17.190;2022-07-22T23:00:27;14.57;;;9.55;;
21927;SDS011;11128;51.096;17.190;2022-07-22T23:05:29;15.60;;;9.98;;
21927;SDS011;11128;51.096;17.190;2022-07-22T23:10:32;13.38;;;9.57;;
21927;SDS011;11128;51.096;17.190;2022-07-22T23:15:33;12.23;;;9.43;;
21927;SDS011;11128;51.096;17.190;2022-07-22T23:20:35;14.55;;;9.75;;
21927;SDS011;11128;51.096;17.190;2022-07-22T23:25:48;15.38;;;10.18;;
21927;SDS011;11128;51.096;17.190;2022-07-22T23:30:50;15.75;;;10.85;;
21927;SDS011;11128;51.096;17.190;2022-07-22T23:35:53;16.98;;;11.63;;
21927;SDS011;11128;51.096;17.190;2022-07-22T23:40:55;16.23;;;10.88;;
21927;SDS011;11128;51.096;17.190;2022-07-22T23:46:03;15.93;;;10.40;;
21927;SDS011;11128;51.096;17.190;2022-07-22T23:51:05;15.00;;;11.05;;
21927;SDS011;11128;51.096;17.190;2022-07-22T23:56:06;17.13;;;10.65;;
